sensor_id;sensor_type;location;lat;lon;timestamp;pressure;altitude;pressure_sealevel;temperature;humidity
44839;BME280;30576;42.098;24.876;2023-06-04T00:01:49;99820.78;;;20.28;66.30
44839;BME280;30576;42.098;24.876;2023-06-04T00:04:15;99836.81;;;20.46;65.69
44839;BME280;30576;42.098;24.876;2023-06-04T00:06:41;99803.22;;;20.23;64.68
44839;BME280;30576;42.098;24.876;2023-06-04T00:09:06;99808.66;;;20.21;64.71
44839;BME280;30576;42.098;24.876;2023-06-04T00:11:33;99836.84;;;20.28;65.28
44839;BME280;30576;42.098;24.876;2023-06-04T00:14:00;99806.91;;;20.20;64.91
44839;BME280;30576;42.098;24.876;2023-06-04T00:16:26;99810.22;;;20.25;65.36
44839;BME280;30576;42.098;24.876;2023-06-04T00:18:51;99833.78;;;20.52;64.87
44839;BME280;30576;42.098;24.876;2023-06-04T00:21:17;99796.00;;;20.41;64.95
44839;BME280;30576;42.098;24.876;2023-06-04T00:23:42;99782.16;;;20.32;64.95
44839;BME280;30576;42.098;24.876;2023-06-04T00:26:08;99810.84;;;20.30;65.36
44839;BME280;30576;42.098;24.876;2023-06-04T00:28:33;99798.06;;;20.35;65.03
44839;BME280;30576;42.098;24.876;2023-06-04T00:30:59;99822.56;;;20.45;65.33
44839;BME280;30576;42.098;24.876;2023-06-04T00:33:24;99780.22;;;20.18;65.32
44839;BME280;30576;42.098;24.876;2023-06-04T00:35:49;99784.97;;;20.13;65.59
44839;BME280;30576;42.098;24.876;2023-06-04T00:38:15;99799.94;;;20.17;65.55
44839;BME280;30576;42.098;24.876;2023-06-04T00:40:40;99777.22;;;19.91;66.58
44839;BME280;30576;42.098;24.876;2023-06-04T00:43:06;99807.16;;;20.15;66.08
44839;BME280;30576;42.098;24.876;2023-06-04T00:45:31;99796.16;;;20.04;65.62
44839;BME280;30576;42.098;24.876;2023-06-04T00:47:57;99819.63;;;19.99;66.02
44839;BME280;30576;42.098;24.876;2023-06-04T00:50:23;99818.81;;;19.97;65.40
44839;BME280;30576;42.098;24.876;2023-06-04T00:52:50;99773.09;;;19.66;65.19
44839;BME280;30576;42.098;24.876;2023-06-04T00:55:16;99799.13;;;19.63;65.88
44839;BME280;30576;42.098;24.876;2023-06-04T00:57:45;99827.50;;;20.02;65.44
44839;BME280;30576;42.098;24.876;2023-06-04T01:00:11;99800.31;;;19.92;65.80
44839;BME280;30576;42.098;24.876;2023-06-04T01:02:39;99807.50;;;19.92;65.79
44839;BME280;30576;42.098;24.876;2023-06-04T01:07:37;99804.72;;;19.76;66.39
44839;BME280;30576;42.098;24.876;2023-06-04T01:10:06;99816.88;;;19.83;66.50
44839;BME280;30576;42.098;24.876;2023-06-04T01:12:31;99827.09;;;19.92;66.61
44839;BME280;30576;42.098;24.876;2023-06-04T01:14:57;99809.72;;;19.83;66.83
44839;BME280;30576;42.098;24.876;2023-06-04T01:17:35;99808.28;;;19.94;66.25
44839;BME280;30576;42.098;24.876;2023-06-04T01:25:40;99835.38;;;20.05;66.38
44839;BME280;30576;42.098;24.876;2023-06-04T01:28:08;99812.63;;;19.79;66.15
44839;BME280;30576;42.098;24.876;2023-06-04T01:30:37;99829.63;;;19.95;65.85
44839;BME280;30576;42.098;24.876;2023-06-04T01:33:12;99828.69;;;19.96;65.61
44839;BME280;30576;42.098;24.876;2023-06-04T01:35:38;99846.41;;;19.99;65.85
44839;BME280;30576;42.098;24.876;2023-06-04T01:38:03;99795.47;;;20.00;65.61
44839;BME280;30576;42.098;24.876;2023-06-04T01:40:29;99838.50;;;20.13;65.55
44839;BME280;30576;42.098;24.876;2023-06-04T01:42:55;99845.97;;;20.24;65.43
44839;BME280;30576;42.098;24.876;2023-06-04T01:45:24;99817.78;;;20.17;64.90
44839;BME280;30576;42.098;24.876;2023-06-04T01:47:51;99797.41;;;19.97;65.31
44839;BME280;30576;42.098;24.876;2023-06-04T01:50:16;99802.00;;;19.95;65.89
44839;BME280;30576;42.098;24.876;2023-06-04T01:52:42;99823.94;;;20.01;66.91
44839;BME280;30576;42.098;24.876;2023-06-04T01:55:09;99844.41;;;20.37;66.13
44839;BME280;30576;42.098;24.876;2023-06-04T01:57:37;99850.25;;;20.28;66.90
44839;BME280;30576;42.098;24.876;2023-06-04T02:00:05;99795.88;;;19.93;67.12
44839;BME280;30576;42.098;24.876;2023-06-04T02:02:34;99819.31;;;20.05;67.64
44839;BME280;30576;42.098;24.876;2023-06-04T02:05:01;99846.84;;;20.25;67.50
44839;BME280;30576;42.098;24.876;2023-06-04T02:07:27;99842.63;;;20.20;67.73
44839;BME280;30576;42.098;24.876;2023-06-04T02:09:52;99839.44;;;20.12;67.21
44839;BME280;30576;42.098;24.876;2023-06-04T02:12:18;99805.84;;;19.89;66.98
44839;BME280;30576;42.098;24.876;2023-06-04T02:14:43;99834.09;;;20.12;66.37
44839;BME280;30576;42.098;24.876;2023-06-04T02:17:12;99803.56;;;19.81;66.96
44839;BME280;30576;42.098;24.876;2023-06-04T02:19:42;99858.19;;;20.12;67.09
44839;BME280;30576;42.098;24.876;2023-06-04T02:22:18;99869.22;;;20.06;67.26
44839;BME280;30576;42.098;24.876;2023-06-04T02:24:45;99829.75;;;19.75;67.26
44839;BME280;30576;42.098;24.876;2023-06-04T02:27:13;99832.94;;;19.83;67.04
44839;BME280;30576;42.098;24.876;2023-06-04T02:29:40;99856.78;;;19.88;66.95
44839;BME280;30576;42.098;24.876;2023-06-04T02:32:06;99860.41;;;19.87;67.09
44839;BME280;30576;42.098;24.876;2023-06-04T02:34:32;99860.59;;;19.83;66.83
44839;BME280;30576;42.098;24.876;2023-06-04T02:36:59;99870.25;;;19.86;67.64
44839;BME280;30576;42.098;24.876;2023-06-04T02:39:25;99888.50;;;19.78;68.29
44839;BME280;30576;42.098;24.876;2023-06-04T02:41:50;99869.97;;;19.73;68.22
44839;BME280;30576;42.098;24.876;2023-06-04T02:44:16;99887.34;;;19.83;68.43
44839;BME280;30576;42.098;24.876;2023-06-04T02:46:41;99887.69;;;19.76;68.18
44839;BME280;30576;42.098;24.876;2023-06-04T02:49:07;99881.34;;;19.78;67.96
44839;BME280;30576;42.098;24.876;2023-06-04T02:51:32;99866.53;;;19.52;68.58
44839;BME280;30576;42.098;24.876;2023-06-04T02:53:58;99879.97;;;19.70;68.59
44839;BME280;30576;42.098;24.876;2023-06-04T02:56:25;99884.03;;;19.59;68.70
44839;BME280;30576;42.098;24.876;2023-06-04T02:58:54;99866.47;;;19.54;68.80
44839;BME280;30576;42.098;24.876;2023-06-04T03:01:25;99889.63;;;19.72;68.31
44839;BME280;30576;42.098;24.876;2023-06-04T03:03:55;99875.31;;;19.56;68.16
44839;BME280;30576;42.098;24.876;2023-06-04T03:06:21;99888.38;;;19.62;68.09
44839;BME280;30576;42.098;24.876;2023-06-04T03:08:51;99914.09;;;19.83;68.33
44839;BME280;30576;42.098;24.876;2023-06-04T03:11:17;99880.69;;;19.73;68.23
44839;BME280;30576;42.098;24.876;2023-06-04T03:13:46;99880.47;;;19.78;68.38
44839;BME280;30576;42.098;24.876;2023-06-04T03:16:11;99897.81;;;19.88;68.85
44839;BME280;30576;42.098;24.876;2023-06-04T03:18:38;99889.88;;;19.87;67.89
44839;BME280;30576;42.098;24.876;2023-06-04T03:21:04;99914.34;;;19.96;68.05
44839;BME280;30576;42.098;24.876;2023-06-04T03:23:30;99916.78;;;20.01;68.11
44839;BME280;30576;42.098;24.876;2023-06-04T03:25:56;99900.25;;;20.10;67.57
44839;BME280;30576;42.098;24.876;2023-06-04T03:28:21;99872.28;;;19.98;67.35
44839;BME280;30576;42.098;24.876;2023-06-04T03:30:47;99928.94;;;20.26;67.92
44839;BME280;30576;42.098;24.876;2023-06-04T03:33:13;99932.53;;;20.25;68.04
44839;BME280;30576;42.098;24.876;2023-06-04T03:35:40;99894.75;;;20.13;67.84
44839;BME280;30576;42.098;24.876;2023-06-04T03:38:05;99930.44;;;20.31;68.27
44839;BME280;30576;42.098;24.876;2023-06-04T03:40:31;99897.09;;;20.19;67.80
44839;BME280;30576;42.098;24.876;2023-06-04T03:42:56;99900.88;;;20.15;67.63
44839;BME280;30576;42.098;24.876;2023-06-04T03:45:22;99904.13;;;20.22;67.13
44839;BME280;30576;42.098;24.876;2023-06-04T03:47:47;99942.72;;;20.35;67.28
44839;BME280;30576;42.098;24.876;2023-06-04T03:50:13;99905.69;;;20.09;68.74
44839;BME280;30576;42.098;24.876;2023-06-04T03:52:38;99924.75;;;20.37;68.97
44839;BME280;30576;42.098;24.876;2023-06-04T03:55:04;99950.97;;;20.31;70.13
44839;BME280;30576;42.098;24.876;2023-06-04T03:57:29;99932.41;;;20.10;70.54
44839;BME280;30576;42.098;24.876;2023-06-04T03:59:56;99931.69;;;20.24;69.70
44839;BME280;30576;42.098;24.876;2023-06-04T04:02:21;99930.91;;;20.22;69.39
44839;BME280;30576;42.098;24.876;2023-06-04T04:04:47;99948.16;;;20.16;70.46
44839;BME280;30576;42.098;24.876;2023-06-04T04:07:13;99927.97;;;20.09;71.29
44839;BME280;30576;42.098;24.876;2023-06-04T04:09:39;99940.44;;;20.10;70.43
44839;BME280;30576;42.098;24.876;2023-06-04T04:12:05;99956.56;;;20.09;70.75
44839;BME280;30576;42.098;24.876;2023-06-04T04:14:30;99930.72;;;20.08;70.86
44839;BME280;30576;42.098;24.876;2023-06-04T04:16:56;99966.91;;;20.34;70.78
44839;BME280;30576;42.098;24.876;2023-06-04T04:19:21;99922.47;;;19.95;71.29
44839;BME280;30576;42.098;24.876;2023-06-04T04:21:47;99967.72;;;20.36;71.30
44839;BME280;30576;42.098;24.876;2023-06-04T04:24:33;99959.50;;;20.56;70.70
44839;BME280;30576;42.098;24.876;2023-06-04T04:27:00;99943.81;;;20.66;69.79
44839;BME280;30576;42.098;24.876;2023-06-04T04:29:28;99952.88;;;20.64;69.52
44839;BME280;30576;42.098;24.876;2023-06-04T04:31:58;99970.47;;;20.69;69.32
44839;BME280;30576;42.098;24.876;2023-06-04T04:34:26;99967.09;;;20.66;69.81
44839;BME280;30576;42.098;24.876;2023-06-04T04:36:52;99940.28;;;20.48;68.83
44839;BME280;30576;42.098;24.876;2023-06-04T04:39:24;99942.31;;;20.61;68.41
44839;BME280;30576;42.098;24.876;2023-06-04T04:41:51;99939.09;;;20.36;67.75
44839;BME280;30576;42.098;24.876;2023-06-04T04:44:17;99979.56;;;20.67;67.93
44839;BME280;30576;42.098;24.876;2023-06-04T04:46:42;99954.06;;;20.58;67.38
44839;BME280;30576;42.098;24.876;2023-06-04T04:49:08;99965.25;;;20.49;67.47
44839;BME280;30576;42.098;24.876;2023-06-04T04:51:34;99971.03;;;20.76;67.24
44839;BME280;30576;42.098;24.876;2023-06-04T04:54:00;99953.53;;;20.69;66.37
44839;BME280;30576;42.098;24.876;2023-06-04T04:56:26;99969.34;;;20.73;67.08
44839;BME280;30576;42.098;24.876;2023-06-04T04:58:52;99978.78;;;20.63;68.17
44839;BME280;30576;42.098;24.876;2023-06-04T05:01:17;99997.03;;;20.91;67.17
44839;BME280;30576;42.098;24.876;2023-06-04T05:03:43;100006.53;;;20.97;68.07
44839;BME280;30576;42.098;24.876;2023-06-04T05:06:08;100012.72;;;21.15;67.81
44839;BME280;30576;42.098;24.876;2023-06-04T05:08:33;99976.28;;;21.11;66.96
44839;BME280;30576;42.098;24.876;2023-06-04T05:10:59;100008.97;;;21.35;66.63
44839;BME280;30576;42.098;24.876;2023-06-04T05:13:25;99994.66;;;21.35;66.36
44839;BME280;30576;42.098;24.876;2023-06-04T05:15:51;99988.97;;;21.41;65.97
44839;BME280;30576;42.098;24.876;2023-06-04T05:18:18;100010.94;;;21.49;64.80
44839;BME280;30576;42.098;24.876;2023-06-04T05:20:47;100014.91;;;21.58;64.11
44839;BME280;30576;42.098;24.876;2023-06-04T05:23:13;100029.28;;;21.57;64.24
44839;BME280;30576;42.098;24.876;2023-06-04T05:25:39;100007.91;;;21.38;64.13
44839;BME280;30576;42.098;24.876;2023-06-04T05:28:06;99990.63;;;21.43;63.83
44839;BME280;30576;42.098;24.876;2023-06-04T05:30:32;100011.88;;;21.64;63.93
44839;BME280;30576;42.098;24.876;2023-06-04T05:32:59;99992.19;;;21.48;63.69
44839;BME280;30576;42.098;24.876;2023-06-04T05:35:24;100002.88;;;21.65;63.72
44839;BME280;30576;42.098;24.876;2023-06-04T05:37:50;100015.28;;;21.68;63.61
44839;BME280;30576;42.098;24.876;2023-06-04T05:40:22;100025.47;;;21.93;63.26
44839;BME280;30576;42.098;24.876;2023-06-04T05:42:48;100008.59;;;21.91;62.53
44839;BME280;30576;42.098;24.876;2023-06-04T05:45:15;100028.84;;;21.96;62.81
44839;BME280;30576;42.098;24.876;2023-06-04T05:47:40;100015.59;;;21.93;62.27
44839;BME280;30576;42.098;24.876;2023-06-04T05:50:06;100023.66;;;21.93;63.39
44839;BME280;30576;42.098;24.876;2023-06-04T05:52:32;100050.59;;;22.08;63.58
44839;BME280;30576;42.098;24.876;2023-06-04T05:55:02;100032.75;;;22.07;62.95
44839;BME280;30576;42.098;24.876;2023-06-04T05:57:27;100037.19;;;22.08;62.68
44839;BME280;30576;42.098;24.876;2023-06-04T05:59:53;100026.66;;;22.19;62.55
44839;BME280;30576;42.098;24.876;2023-06-04T06:02:18;100012.63;;;21.98;62.92
44839;BME280;30576;42.098;24.876;2023-06-04T06:04:43;100031.53;;;22.12;63.03
44839;BME280;30576;42.098;24.876;2023-06-04T06:07:09;100037.31;;;22.37;62.21
44839;BME280;30576;42.098;24.876;2023-06-04T06:09:34;100046.50;;;22.48;61.53
44839;BME280;30576;42.098;24.876;2023-06-04T06:12:01;100045.72;;;22.46;61.17
44839;BME280;30576;42.098;24.876;2023-06-04T06:14:27;100033.19;;;22.31;61.20
44839;BME280;30576;42.098;24.876;2023-06-04T06:16:52;100027.06;;;22.27;60.64
44839;BME280;30576;42.098;24.876;2023-06-04T06:19:18;100070.59;;;22.50;61.79
44839;BME280;30576;42.098;24.876;2023-06-04T06:21:44;100065.63;;;22.58;60.91
44839;BME280;30576;42.098;24.876;2023-06-04T06:24:09;100077.97;;;22.46;62.04
44839;BME280;30576;42.098;24.876;2023-06-04T06:26:35;100074.56;;;22.59;62.10
44839;BME280;30576;42.098;24.876;2023-06-04T06:29:01;100086.31;;;22.42;62.23
44839;BME280;30576;42.098;24.876;2023-06-04T06:31:27;100043.19;;;22.27;61.33
44839;BME280;30576;42.098;24.876;2023-06-04T06:33:52;100050.31;;;22.44;61.57
44839;BME280;30576;42.098;24.876;2023-06-04T06:36:17;100053.25;;;22.56;61.42
44839;BME280;30576;42.098;24.876;2023-06-04T06:38:44;100024.50;;;22.42;60.80
44839;BME280;30576;42.098;24.876;2023-06-04T06:41:13;100065.16;;;22.66;61.45
44839;BME280;30576;42.098;24.876;2023-06-04T06:43:38;100076.50;;;22.41;61.82
44839;BME280;30576;42.098;24.876;2023-06-04T06:46:04;100070.53;;;22.35;61.77
44839;BME280;30576;42.098;24.876;2023-06-04T06:48:29;100059.94;;;22.48;61.27
44839;BME280;30576;42.098;24.876;2023-06-04T06:50:55;100051.44;;;22.24;62.46
44839;BME280;30576;42.098;24.876;2023-06-04T06:53:21;100089.75;;;22.44;63.12
44839;BME280;30576;42.098;24.876;2023-06-04T06:55:46;100078.13;;;22.59;62.30
44839;BME280;30576;42.098;24.876;2023-06-04T06:58:11;100076.91;;;22.65;62.63
44839;BME280;30576;42.098;24.876;2023-06-04T07:00:37;100095.06;;;22.45;62.85
44839;BME280;30576;42.098;24.876;2023-06-04T07:03:02;100068.09;;;22.47;63.08
44839;BME280;30576;42.098;24.876;2023-06-04T07:05:29;100080.56;;;22.16;64.48
44839;BME280;30576;42.098;24.876;2023-06-04T07:07:55;100077.81;;;22.33;64.30
44839;BME280;30576;42.098;24.876;2023-06-04T07:10:22;100069.22;;;22.11;65.45
44839;BME280;30576;42.098;24.876;2023-06-04T07:12:47;100103.53;;;22.53;65.40
44839;BME280;30576;42.098;24.876;2023-06-04T07:15:13;100085.63;;;22.68;64.11
44839;BME280;30576;42.098;24.876;2023-06-04T07:17:38;100076.09;;;22.63;64.21
44839;BME280;30576;42.098;24.876;2023-06-04T07:20:05;100105.47;;;22.82;64.64
44839;BME280;30576;42.098;24.876;2023-06-04T07:22:33;100103.69;;;22.66;65.24
44839;BME280;30576;42.098;24.876;2023-06-04T07:24:58;100090.59;;;22.60;65.30
44839;BME280;30576;42.098;24.876;2023-06-04T07:27:24;100126.34;;;22.46;65.98
44839;BME280;30576;42.098;24.876;2023-06-04T07:29:49;100087.94;;;21.96;67.00
44839;BME280;30576;42.098;24.876;2023-06-04T07:32:15;100073.22;;;21.88;67.16
44839;BME280;30576;42.098;24.876;2023-06-04T07:34:40;100059.09;;;22.16;66.78
44839;BME280;30576;42.098;24.876;2023-06-04T07:37:06;100086.09;;;22.29;66.36
44839;BME280;30576;42.098;24.876;2023-06-04T07:39:33;100092.88;;;22.20;68.32
44839;BME280;30576;42.098;24.876;2023-06-04T07:41:58;100104.59;;;22.35;67.71
44839;BME280;30576;42.098;24.876;2023-06-04T07:44:23;100081.53;;;21.99;67.85
44839;BME280;30576;42.098;24.876;2023-06-04T07:46:49;100119.84;;;22.18;68.97
44839;BME280;30576;42.098;24.876;2023-06-04T07:49:14;100097.81;;;21.96;69.29
44839;BME280;30576;42.098;24.876;2023-06-04T07:51:40;100094.63;;;21.89;68.91
44839;BME280;30576;42.098;24.876;2023-06-04T07:54:06;100102.34;;;21.95;68.61
44839;BME280;30576;42.098;24.876;2023-06-04T07:56:31;100083.88;;;21.89;68.01
44839;BME280;30576;42.098;24.876;2023-06-04T07:58:56;100103.63;;;21.88;67.99
44839;BME280;30576;42.098;24.876;2023-06-04T08:01:22;100102.72;;;21.72;67.96
44839;BME280;30576;42.098;24.876;2023-06-04T08:03:49;100106.72;;;21.80;68.49
44839;BME280;30576;42.098;24.876;2023-06-04T08:06:15;100100.69;;;21.59;68.54
44839;BME280;30576;42.098;24.876;2023-06-04T08:08:44;100130.06;;;21.62;70.68
44839;BME280;30576;42.098;24.876;2023-06-04T08:11:15;100070.09;;;21.46;70.42
44839;BME280;30576;42.098;24.876;2023-06-04T08:13:41;100101.66;;;21.58;71.31
44839;BME280;30576;42.098;24.876;2023-06-04T08:16:07;100115.94;;;21.92;70.99
44839;BME280;30576;42.098;24.876;2023-06-04T08:18:32;100131.66;;;21.82;71.08
44839;BME280;30576;42.098;24.876;2023-06-04T08:20:58;100140.47;;;21.69;72.02
44839;BME280;30576;42.098;24.876;2023-06-04T08:23:23;100106.88;;;21.77;71.12
44839;BME280;30576;42.098;24.876;2023-06-04T08:25:49;100105.28;;;21.91;71.10
44839;BME280;30576;42.098;24.876;2023-06-04T08:28:15;100101.00;;;21.87;69.10
44839;BME280;30576;42.098;24.876;2023-06-04T08:30:44;100143.22;;;22.16;67.93
44839;BME280;30576;42.098;24.876;2023-06-04T08:33:11;100109.41;;;21.96;67.62
44839;BME280;30576;42.098;24.876;2023-06-04T08:35:36;100113.59;;;21.86;68.08
44839;BME280;30576;42.098;24.876;2023-06-04T08:38:01;100102.22;;;21.81;67.83
44839;BME280;30576;42.098;24.876;2023-06-04T08:40:27;100083.97;;;21.88;67.30
44839;BME280;30576;42.098;24.876;2023-06-04T08:42:55;100139.00;;;22.44;66.96
44839;BME280;30576;42.098;24.876;2023-06-04T08:45:24;100140.13;;;22.56;65.45
44839;BME280;30576;42.098;24.876;2023-06-04T08:47:51;100149.28;;;22.84;64.74
44839;BME280;30576;42.098;24.876;2023-06-04T08:50:20;100125.91;;;22.54;63.85
44839;BME280;30576;42.098;24.876;2023-06-04T08:52:46;100102.44;;;22.42;64.02
44839;BME280;30576;42.098;24.876;2023-06-04T08:55:13;100095.03;;;21.97;64.86
44839;BME280;30576;42.098;24.876;2023-06-04T08:57:40;100137.88;;;22.48;61.85
44839;BME280;30576;42.098;24.876;2023-06-04T09:00:06;100127.19;;;22.63;60.53
44839;BME280;30576;42.098;24.876;2023-06-04T09:02:36;100133.66;;;22.75;60.11
44839;BME280;30576;42.098;24.876;2023-06-04T09:05:05;100114.00;;;22.74;61.86
44839;BME280;30576;42.098;24.876;2023-06-04T09:07:35;100113.78;;;23.07;61.22
44839;BME280;30576;42.098;24.876;2023-06-04T09:10:01;100155.97;;;23.07;61.01
44839;BME280;30576;42.098;24.876;2023-06-04T09:12:28;100117.66;;;22.57;62.21
44839;BME280;30576;42.098;24.876;2023-06-04T09:14:54;100119.59;;;22.85;62.15
44839;BME280;30576;42.098;24.876;2023-06-04T09:17:24;100109.22;;;23.10;60.89
44839;BME280;30576;42.098;24.876;2023-06-04T09:19:50;100132.72;;;23.51;60.33
44839;BME280;30576;42.098;24.876;2023-06-04T09:22:18;100112.16;;;23.64;60.86
44839;BME280;30576;42.098;24.876;2023-06-04T09:24:46;100116.53;;;24.23;58.85
44839;BME280;30576;42.098;24.876;2023-06-04T09:27:13;100109.19;;;24.25;58.91
44839;BME280;30576;42.098;24.876;2023-06-04T09:29:40;100132.25;;;24.16;58.80
44839;BME280;30576;42.098;24.876;2023-06-04T09:32:06;100146.13;;;24.52;59.80
44839;BME280;30576;42.098;24.876;2023-06-04T09:34:31;100145.13;;;24.25;58.56
44839;BME280;30576;42.098;24.876;2023-06-04T09:36:58;100145.81;;;24.15;59.53
44839;BME280;30576;42.098;24.876;2023-06-04T09:39:23;100135.84;;;24.29;57.46
44839;BME280;30576;42.098;24.876;2023-06-04T09:42:02;100146.94;;;24.25;57.36
44839;BME280;30576;42.098;24.876;2023-06-04T09:44:31;100119.81;;;24.13;57.63
44839;BME280;30576;42.098;24.876;2023-06-04T09:46:57;100155.47;;;24.46;56.89
44839;BME280;30576;42.098;24.876;2023-06-04T09:49:24;100113.50;;;23.71;57.42
44839;BME280;30576;42.098;24.876;2023-06-04T09:51:50;100129.16;;;23.65;56.14
44839;BME280;30576;42.098;24.876;2023-06-04T09:54:17;100134.66;;;23.63;57.64
44839;BME280;30576;42.098;24.876;2023-06-04T09:56:42;100132.63;;;23.81;57.77
44839;BME280;30576;42.098;24.876;2023-06-04T09:59:09;100149.63;;;24.39;57.27
44839;BME280;30576;42.098;24.876;2023-06-04T10:01:38;100146.63;;;24.44;56.48
44839;BME280;30576;42.098;24.876;2023-06-04T10:04:07;100142.84;;;24.61;54.17
44839;BME280;30576;42.098;24.876;2023-06-04T10:06:35;100147.16;;;24.63;51.84
44839;BME280;30576;42.098;24.876;2023-06-04T10:09:06;100140.63;;;24.53;52.43
44839;BME280;30576;42.098;24.876;2023-06-04T10:11:39;100148.06;;;24.77;51.28
44839;BME280;30576;42.098;24.876;2023-06-04T10:14:23;100118.31;;;24.91;47.57
44839;BME280;30576;42.098;24.876;2023-06-04T10:16:51;100104.50;;;24.96;43.19
44839;BME280;30576;42.098;24.876;2023-06-04T10:19:18;100119.00;;;24.95;48.75
44839;BME280;30576;42.098;24.876;2023-06-04T10:21:44;100135.09;;;25.22;48.92
44839;BME280;30576;42.098;24.876;2023-06-04T10:24:11;100121.00;;;25.31;51.09
44839;BME280;30576;42.098;24.876;2023-06-04T10:26:37;100096.38;;;25.49;48.16
44839;BME280;30576;42.098;24.876;2023-06-04T10:29:05;100084.97;;;25.05;48.34
44839;BME280;30576;42.098;24.876;2023-06-04T10:31:32;100099.81;;;25.64;48.69
44839;BME280;30576;42.098;24.876;2023-06-04T10:33:58;100079.94;;;25.39;53.06
44839;BME280;30576;42.098;24.876;2023-06-04T10:36:24;100130.06;;;25.82;55.90
44839;BME280;30576;42.098;24.876;2023-06-04T10:38:54;100123.69;;;25.83;56.17
44839;BME280;30576;42.098;24.876;2023-06-04T10:41:21;100113.53;;;25.48;57.58
44839;BME280;30576;42.098;24.876;2023-06-04T10:43:49;100137.84;;;25.61;58.19
44839;BME280;30576;42.098;24.876;2023-06-04T10:46:16;100128.09;;;25.84;57.27
44839;BME280;30576;42.098;24.876;2023-06-04T10:48:52;100125.97;;;25.50;57.00
44839;BME280;30576;42.098;24.876;2023-06-04T10:53:59;100108.03;;;25.49;56.63
44839;BME280;30576;42.098;24.876;2023-06-04T10:56:31;100099.81;;;25.64;58.42
44839;BME280;30576;42.098;24.876;2023-06-04T10:59:02;100089.66;;;25.54;56.41
44839;BME280;30576;42.098;24.876;2023-06-04T11:01:37;100091.72;;;25.51;56.87
44839;BME280;30576;42.098;24.876;2023-06-04T11:04:03;100057.69;;;25.23;57.25
44839;BME280;30576;42.098;24.876;2023-06-04T11:06:29;100113.59;;;25.20;57.83
44839;BME280;30576;42.098;24.876;2023-06-04T11:09:03;100093.44;;;25.13;58.16
44839;BME280;30576;42.098;24.876;2023-06-04T11:11:29;100122.41;;;25.37;59.33
44839;BME280;30576;42.098;24.876;2023-06-04T11:13:54;100090.41;;;25.18;58.86
44839;BME280;30576;42.098;24.876;2023-06-04T11:16:20;100098.63;;;25.42;57.95
44839;BME280;30576;42.098;24.876;2023-06-04T11:18:58;100120.44;;;25.39;57.47
44839;BME280;30576;42.098;24.876;2023-06-04T11:21:25;100123.06;;;25.53;55.85
44839;BME280;30576;42.098;24.876;2023-06-04T11:24:00;100114.91;;;25.28;57.45
44839;BME280;30576;42.098;24.876;2023-06-04T11:26:35;100119.06;;;25.72;57.15
44839;BME280;30576;42.098;24.876;2023-06-04T11:29:02;100110.94;;;25.59;56.67
44839;BME280;30576;42.098;24.876;2023-06-04T11:31:40;100123.13;;;25.26;56.18
44839;BME280;30576;42.098;24.876;2023-06-04T11:34:07;100109.09;;;25.21;55.82
44839;BME280;30576;42.098;24.876;2023-06-04T11:36:33;100107.38;;;25.59;55.66
44839;BME280;30576;42.098;24.876;2023-06-04T11:39:00;100115.03;;;25.78;54.77
44839;BME280;30576;42.098;24.876;2023-06-04T11:41:32;100096.97;;;25.91;53.59
44839;BME280;30576;42.098;24.876;2023-06-04T11:44:02;100108.31;;;25.83;55.57
44839;BME280;30576;42.098;24.876;2023-06-04T11:46:28;100069.25;;;25.25;56.17
44839;BME280;30576;42.098;24.876;2023-06-04T11:48:54;100097.53;;;25.83;55.37
44839;BME280;30576;42.098;24.876;2023-06-04T11:51:20;100096.16;;;25.65;54.03
44839;BME280;30576;42.098;24.876;2023-06-04T11:53:46;100089.31;;;25.85;53.73
44839;BME280;30576;42.098;24.876;2023-06-04T11:56:12;100069.72;;;25.94;53.00
44839;BME280;30576;42.098;24.876;2023-06-04T11:58:38;100081.09;;;26.23;53.49
44839;BME280;30576;42.098;24.876;2023-06-04T12:01:06;100080.16;;;26.12;52.01
44839;BME280;30576;42.098;24.876;2023-06-04T12:06:15;100108.28;;;26.70;51.57
44839;BME280;30576;42.098;24.876;2023-06-04T12:08:51;100067.59;;;26.72;51.26
44839;BME280;30576;42.098;24.876;2023-06-04T12:11:35;100090.63;;;26.29;50.73
44839;BME280;30576;42.098;24.876;2023-06-04T12:14:04;100090.22;;;25.60;52.83
44839;BME280;30576;42.098;24.876;2023-06-04T12:16:30;100079.06;;;25.77;53.67
44839;BME280;30576;42.098;24.876;2023-06-04T12:19:09;100104.72;;;26.08;52.64
44839;BME280;30576;42.098;24.876;2023-06-04T12:21:35;100111.78;;;26.59;53.05
44839;BME280;30576;42.098;24.876;2023-06-04T12:24:07;100122.72;;;26.82;52.13
44839;BME280;30576;42.098;24.876;2023-06-04T12:26:34;100100.59;;;26.88;50.31
44839;BME280;30576;42.098;24.876;2023-06-04T12:29:10;100099.22;;;26.34;51.41
44839;BME280;30576;42.098;24.876;2023-06-04T12:31:41;100111.81;;;26.22;52.35
44839;BME280;30576;42.098;24.876;2023-06-04T12:34:06;100112.69;;;26.47;51.50
44839;BME280;30576;42.098;24.876;2023-06-04T12:36:32;100101.66;;;26.74;51.35
44839;BME280;30576;42.098;24.876;2023-06-04T12:39:02;100064.25;;;26.68;50.77
44839;BME280;30576;42.098;24.876;2023-06-04T12:41:29;100107.06;;;26.50;51.44
44839;BME280;30576;42.098;24.876;2023-06-04T12:43:55;100107.09;;;26.74;50.40
44839;BME280;30576;42.098;24.876;2023-06-04T12:46:22;100089.50;;;26.56;52.20
44839;BME280;30576;42.098;24.876;2023-06-04T12:48:49;100115.34;;;26.36;52.56
44839;BME280;30576;42.098;24.876;2023-06-04T12:51:15;100099.81;;;26.26;51.12
44839;BME280;30576;42.098;24.876;2023-06-04T12:53:41;100102.78;;;26.35;51.51
44839;BME280;30576;42.098;24.876;2023-06-04T12:56:07;100111.03;;;26.33;52.14